Terminal Aerodrome Forecast
Issued by NWS

Home | Current Version | Previous Version | Text Only | Print | Product List | Glossary On
Versions: 1 2 3 4 5 6 7 8 9 10 11 12 13 14 15 16 17 18 19 20 21 22 23 24 25 26 27 28 29 30 31 32 33 34 35 36
000
FTPA31 PHFO 211100
TAFMDY
TAF
PMDY 211125Z 2112/2212 35010G18KT P6SM VCSH SCT025 BKN060
      TEMPO 2112/2114 3SM SHRA BR BKN025
     FM211400 35010G18KT P6SM SCT025 BKN040
     FM220600 36010KT P6SM SCT040
      AMD LTD TO CLD AND WIND=

USA.gov is the U.S. government's official web portal to all federal, state and local government web resources and services.